Time;durP1;ratioP1;P1;durP2;ratioP2;P2;SDS_P1;SDS_P2;PMS_P1;PMS_P2;Temp;Humidity;BMP_temperature;BMP_pressure;BME280_temperature;BME280_humidity;BME280_pressure;Samples;Min_cycle;Max_cycle;Signal;HPM_P1;HPM_P2
2024/04/04 00:01:02;;;;;;;21.40;7.00;;;;;;;;;;6172109;23;20021;-54
2024/04/04 00:03:49;;;;;;;16.77;6.88;;;;;;;;;;6174187;23;20497;-50
2024/04/04 00:06:41;;;;;;;19.20;6.88;;;;;;;;;;6174963;23;20021;-54
2024/04/04 00:09:27;;;;;;;20.20;6.78;;;;;;;;;;6174001;23;20346;-55
2024/04/04 00:12:20;;;;;;;19.40;6.95;;;;;;;;;;6173249;23;20029;-64
2024/04/04 00:15:07;;;;;;;17.75;6.85;;;;;;;;;;6173395;23;20029;-65
2024/04/04 00:18:00;;;;;;;10.80;4.40;;;;;;;;;;6173638;23;20360;-64
2024/04/04 00:20:46;;;;;;;12.63;4.25;;;;;;;;;;6173186;23;20021;-64
2024/04/04 00:23:39;;;;;;;8.13;4.30;;;;;;;;;;6171894;23;20033;-51
2024/04/04 00:26:25;;;;;;;8.57;4.00;;;;;;;;;;6172171;23;20020;-54
2024/04/04 00:29:25;;;;;;;10.00;3.70;;;;;;;;;;6177775;23;20021;-50
2024/04/04 00:32:11;;;;;;;7.82;3.58;;;;;;;;;;6177955;23;20629;-49
2024/04/04 00:35:04;;;;;;;12.43;4.10;;;;;;;;;;6178954;23;20454;-48
2024/04/04 00:37:50;;;;;;;10.90;2.97;;;;;;;;;;6176404;23;20324;-52
2024/04/04 00:40:43;;;;;;;4.45;1.83;;;;;;;;;;6177827;23;20470;-51
2024/04/04 00:43:29;;;;;;;6.53;2.85;;;;;;;;;;6177836;23;20028;-54
2024/04/04 00:46:29;;;;;;;7.15;2.35;;;;;;;;;;6178105;23;20020;-53
2024/04/04 00:49:15;;;;;;;7.57;2.15;;;;;;;;;;6176943;23;20784;-52
2024/04/04 00:52:11;;;;;;;9.25;2.88;;;;;;;;;;6177770;23;20075;-53
2024/04/04 00:54:59;;;;;;;5.65;2.50;;;;;;;;;;6178548;23;20020;-56
2024/04/04 00:57:52;;;;;;;2.72;1.42;;;;;;;;;;6176810;23;20020;-56
2024/04/04 01:00:38;;;;;;;5.20;2.70;;;;;;;;;;6178677;23;20327;-55
2024/04/04 01:03:31;;;;;;;11.73;2.30;;;;;;;;;;6177474;23;20043;-58
2024/04/04 01:06:29;;;;;;;4.13;2.30;;;;;;;;;;6177487;23;20020;-57
2024/04/04 01:09:22;;;;;;;5.60;2.40;;;;;;;;;;6178537;23;20098;-64
2024/04/04 01:12:08;;;;;;;7.88;2.83;;;;;;;;;;6178689;23;20710;-65
2024/04/04 01:15:01;;;;;;;3.78;1.58;;;;;;;;;;6179058;23;20071;-65
2024/04/04 01:17:58;;;;;;;3.28;1.75;;;;;;;;;;6177876;23;20016;-64
2024/04/04 01:20:40;;;;;;;3.92;2.40;;;;;;;;;;6177322;23;20020;-57
2024/04/04 01:23:33;;;;;;;6.07;2.22;;;;;;;;;;6175738;23;20032;-46
2024/04/04 01:26:19;;;;;;;5.03;2.83;;;;;;;;;;6177062;23;20375;-49
2024/04/04 01:29:19;;;;;;;4.13;2.55;;;;;;;;;;6178373;23;20028;-54
2024/04/04 01:32:12;;;;;;;5.60;2.80;;;;;;;;;;6177766;23;20024;-53
2024/04/04 01:34:58;;;;;;;5.25;2.60;;;;;;;;;;6178202;23;20028;-49
2024/04/04 01:37:51;;;;;;;5.57;2.80;;;;;;;;;;6177145;23;20083;-50
2024/04/04 01:40:44;;;;;;;4.60;2.40;;;;;;;;;;6175662;23;20024;-55
2024/04/04 01:43:37;;;;;;;6.53;2.42;;;;;;;;;;6176962;23;20016;-54
2024/04/04 01:46:37;;;;;;;11.90;2.50;;;;;;;;;;6177576;23;20031;-64
2024/04/04 01:49:23;;;;;;;5.93;2.47;;;;;;;;;;6177792;23;20469;-56
2024/04/04 01:52:16;;;;;;;6.68;3.00;;;;;;;;;;6176845;23;20020;-52
2024/04/04 01:55:02;;;;;;;4.72;2.33;;;;;;;;;;6177679;23;20083;-55
2024/04/04 01:57:55;;;;;;;5.25;2.45;;;;;;;;;;6178545;23;20024;-55
2024/04/04 02:00:41;;;;;;;7.75;2.80;;;;;;;;;;6177268;23;20043;-56
2024/04/04 02:03:34;;;;;;;6.50;2.83;;;;;;;;;;6175966;23;20070;-56
2024/04/04 02:06:20;;;;;;;5.25;2.08;;;;;;;;;;6176542;23;20028;-51
2024/04/04 02:09:13;;;;;;;5.50;2.60;;;;;;;;;;6177407;23;20031;-54
2024/04/04 02:11:59;;;;;;;7.60;2.42;;;;;;;;;;6178415;23;20477;-52
2024/04/04 02:14:52;;;;;;;6.18;2.45;;;;;;;;;;6178235;23;20028;-54
2024/04/04 02:17:45;;;;;;;4.05;2.42;;;;;;;;;;6176178;23;20040;-52
2024/04/04 02:20:32;;;;;;;4.43;2.20;;;;;;;;;;6176388;23;20026;-51
2024/04/04 02:23:24;;;;;;;4.47;2.38;;;;;;;;;;6176598;23;20020;-49
2024/04/04 02:26:10;;;;;;;3.92;2.45;;;;;;;;;;6177618;23;20564;-53
2024/04/04 02:29:10;;;;;;;2.45;1.90;;;;;;;;;;6176982;23;20028;-50
2024/04/04 02:31:56;;;;;;;3.33;1.85;;;;;;;;;;6176136;23;20021;-53
2024/04/04 02:34:49;;;;;;;3.10;2.00;;;;;;;;;;6179551;23;20027;-53
2024/04/04 02:37:35;;;;;;;3.92;1.90;;;;;;;;;;6178949;23;20025;-52
2024/04/04 02:40:28;;;;;;;3.78;2.00;;;;;;;;;;6178109;23;20366;-48
2024/04/04 02:43:21;;;;;;;2.97;1.90;;;;;;;;;;6179236;23;20819;-53
2024/04/04 02:46:21;;;;;;;4.13;1.88;;;;;;;;;;6179113;23;20083;-64
2024/04/04 02:49:07;;;;;;;3.47;2.17;;;;;;;;;;6180882;23;20417;-61
2024/04/04 02:52:00;;;;;;;3.15;2.22;;;;;;;;;;6174742;23;20373;-59
2024/04/04 02:54:46;;;;;;;2.22;1.48;;;;;;;;;;6179473;23;20025;-59
2024/04/04 02:57:39;;;;;;;3.55;1.70;;;;;;;;;;6179038;23;20036;-59
2024/04/04 03:00:25;;;;;;;9.75;2.00;;;;;;;;;;6179000;23;20028;-59
2024/04/04 03:03:18;;;;;;;3.33;2.35;;;;;;;;;;6179597;23;20433;-55
2024/04/04 03:06:11;;;;;;;3.65;1.77;;;;;;;;;;6179278;23;20746;-57
2024/04/04 03:09:07;;;;;;;2.75;1.67;;;;;;;;;;6177957;23;20079;-57
2024/04/04 03:11:50;;;;;;;7.93;2.05;;;;;;;;;;6178594;23;20064;-56
2024/04/04 03:14:43;;;;;;;4.05;2.05;;;;;;;;;;6177637;23;20020;-55
2024/04/04 03:17:36;;;;;;;4.63;1.70;;;;;;;;;;6178390;23;20501;-51
2024/04/04 03:20:22;;;;;;;7.78;2.33;;;;;;;;;;6176069;23;20811;-53
2024/04/04 03:23:15;;;;;;;5.78;1.98;;;;;;;;;;6176902;23;20027;-53
2024/04/04 03:26:01;;;;;;;4.20;2.20;;;;;;;;;;6179578;23;20017;-53
2024/04/04 03:29:01;;;;;;;5.63;2.38;;;;;;;;;;6174026;23;20588;-52
2024/04/04 03:31:47;;;;;;;2.83;1.80;;;;;;;;;;6172915;23;20025;-63
2024/04/04 03:34:40;;;;;;;5.10;2.60;;;;;;;;;;6173809;23;20095;-63
2024/04/04 03:37:26;;;;;;;3.75;2.13;;;;;;;;;;6173339;23;20020;-63
2024/04/04 03:40:19;;;;;;;8.40;2.10;;;;;;;;;;6174658;23;20086;-55
2024/04/04 03:43:06;;;;;;;5.70;1.90;;;;;;;;;;6175404;23;20049;-60
2024/04/04 03:46:02;;;;;;;4.40;2.50;;;;;;;;;;6174770;23;20040;-55
2024/04/04 03:49:02;;;;;;;3.38;1.88;;;;;;;;;;6175647;23;20032;-51
2024/04/04 03:51:55;;;;;;;4.63;2.47;;;;;;;;;;6173669;23;20095;-50
2024/04/04 03:54:41;;;;;;;4.90;2.00;;;;;;;;;;6171971;23;20028;-53
2024/04/04 03:57:34;;;;;;;3.85;1.90;;;;;;;;;;6170034;23;20363;-52
2024/04/04 04:00:20;;;;;;;3.20;2.08;;;;;;;;;;6173432;23;20021;-53
2024/04/04 04:03:13;;;;;;;3.63;2.35;;;;;;;;;;6175144;23;20028;-53
2024/04/04 04:05:59;;;;;;;6.28;2.50;;;;;;;;;;6172721;23;20032;-54
2024/04/04 04:08:52;;;;;;;4.10;2.20;;;;;;;;;;6172670;23;20462;-60
2024/04/04 04:11:38;;;;;;;6.35;2.47;;;;;;;;;;6174212;23;20017;-60
2024/04/04 04:14:31;;;;;;;3.83;2.08;;;;;;;;;;6174051;23;20017;-60
2024/04/04 04:17:17;;;;;;;6.00;2.78;;;;;;;;;;6173959;23;20375;-58
2024/04/04 04:22:55;;;;;;;5.75;2.53;;;;;;;;;;6173307;23;20024;-60
2024/04/04 04:25:48;;;;;;;6.35;2.20;;;;;;;;;;6174457;23;20079;-60
2024/04/04 04:28:41;;;;;;;5.22;2.55;;;;;;;;;;6174269;23;20359;-55
2024/04/04 04:31:35;;;;;;;7.57;2.50;;;;;;;;;;6173539;23;20366;-56
2024/04/04 04:34:21;;;;;;;7.90;2.38;;;;;;;;;;6175435;23;20026;-56
2024/04/04 04:37:14;;;;;;;5.60;2.40;;;;;;;;;;6174096;23;20032;-63
2024/04/04 04:40:00;;;;;;;4.45;2.33;;;;;;;;;;6174265;23;20017;-60
2024/04/04 04:42:53;;;;;;;5.22;2.28;;;;;;;;;;6171991;23;20358;-54
2024/04/04 04:45:39;;;;;;;3.30;1.75;;;;;;;;;;6172524;23;20040;-54
2024/04/04 04:48:39;;;;;;;2.88;2.20;;;;;;;;;;6173457;23;20021;-55
2024/04/04 04:51:25;;;;;;;4.80;2.17;;;;;;;;;;6174766;23;20025;-53
2024/04/04 04:54:18;;;;;;;4.78;2.45;;;;;;;;;;6174567;23;20021;-56
2024/04/04 04:57:04;;;;;;;5.53;2.38;;;;;;;;;;6170560;23;20024;-62
2024/04/04 04:59:58;;;;;;;7.25;2.65;;;;;;;;;;6168011;23;20021;-62
2024/04/04 05:02:43;;;;;;;3.78;1.92;;;;;;;;;;6168981;23;20087;-62
2024/04/04 05:05:36;;;;;;;3.72;1.85;;;;;;;;;;6170326;23;20025;-62
2024/04/04 05:08:22;;;;;;;2.67;1.60;;;;;;;;;;6170116;23;20561;-62
2024/04/04 14:16:30;;;;;;;4.60;2.30;;;;;;;;;;6218826;23;20359;-56
2024/04/04 14:19:02;;;;;;;3.08;2.05;;;;;;;;;;6175587;23;20362;-53
2024/04/04 14:21:35;;;;;;;8.90;2.50;;;;;;;;;;6174583;23;20025;-53
2024/04/04 14:24:02;;;;;;;7.30;2.60;;;;;;;;;;6175712;23;20370;-56
2024/04/04 14:26:56;;;;;;;3.65;2.60;;;;;;;;;;6177083;23;20021;-55
2024/04/04 14:29:41;;;;;;;5.50;2.65;;;;;;;;;;6177253;23;20366;-52
2024/04/04 14:32:38;;;;;;;6.65;2.70;;;;;;;;;;6180160;23;20031;-52
2024/04/04 14:35:20;;;;;;;3.40;2.50;;;;;;;;;;6179817;23;20020;-49
2024/04/04 14:38:13;;;;;;;4.60;1.80;;;;;;;;;;6179994;23;20024;-52
2024/04/04 14:41:00;;;;;;;6.70;2.55;;;;;;;;;;6179627;23;20024;-48
2024/04/04 14:43:52;;;;;;;3.08;1.85;;;;;;;;;;6178334;23;20083;-55
2024/04/04 14:46:38;;;;;;;5.57;2.53;;;;;;;;;;6179281;23;20036;-49
2024/04/04 14:49:31;;;;;;;6.32;1.67;;;;;;;;;;6177865;23;20025;-49
2024/04/04 14:52:17;;;;;;;3.45;2.20;;;;;;;;;;6177954;23;20548;-47
2024/04/04 14:55:17;;;;;;;6.97;2.45;;;;;;;;;;6178813;23;20024;-52
2024/04/04 14:58:12;;;;;;;6.43;2.72;;;;;;;;;;6179687;23;20021;-52
2024/04/04 15:01:07;;;;;;;4.68;1.70;;;;;;;;;;6180525;23;20016;-53
2024/04/04 15:03:53;;;;;;;6.60;2.85;;;;;;;;;;6178116;23;20025;-60
2024/04/04 15:06:46;;;;;;;1.27;1.08;;;;;;;;;;6178886;23;20032;-57
2024/04/04 15:09:32;;;;;;;4.25;1.40;;;;;;;;;;6178274;23;20024;-56
2024/04/04 15:12:25;;;;;;;6.85;2.13;;;;;;;;;;6179315;23;20020;-56
2024/04/04 15:15:18;;;;;;;4.50;2.22;;;;;;;;;;6179738;23;20021;-59
2024/04/04 15:18:11;;;;;;;4.10;1.95;;;;;;;;;;6181359;23;20021;-57
2024/04/04 15:21:04;;;;;;;5.15;2.03;;;;;;;;;;6180052;23;20020;-57
2024/04/04 15:23:57;;;;;;;2.85;2.10;;;;;;;;;;6179151;23;20024;-60
2024/04/04 15:26:50;;;;;;;5.28;3.15;;;;;;;;;;6179447;23;20568;-61
2024/04/04 15:29:36;;;;;;;5.28;2.30;;;;;;;;;;6177480;23;20047;-60
2024/04/04 15:32:29;;;;;;;4.03;2.67;;;;;;;;;;6179287;23;20039;-60
2024/04/04 15:35:15;;;;;;;7.47;2.08;;;;;;;;;;6179565;23;20462;-60
2024/04/04 15:38:08;;;;;;;3.85;1.60;;;;;;;;;;6179718;23;20548;-58
2024/04/04 15:40:54;;;;;;;5.60;2.15;;;;;;;;;;6177983;23;20032;-66
2024/04/04 15:43:47;;;;;;;6.85;2.65;;;;;;;;;;6176519;23;20028;-59
2024/04/04 15:46:34;;;;;;;4.82;2.25;;;;;;;;;;6177651;23;20020;-58
2024/04/04 15:49:27;;;;;;;4.00;1.90;;;;;;;;;;6175502;23;20035;-59
2024/04/04 15:52:13;;;;;;;5.32;2.10;;;;;;;;;;6172575;23;20016;-59
2024/04/04 15:55:06;;;;;;;3.58;2.25;;;;;;;;;;6176507;23;20074;-59
2024/04/04 15:57:59;;;;;;;4.00;2.40;;;;;;;;;;6175821;23;20089;-60
2024/04/04 16:00:52;;;;;;;3.42;1.83;;;;;;;;;;6176774;23;20025;-66
2024/04/04 16:03:38;;;;;;;3.38;1.92;;;;;;;;;;6177165;23;20020;-67
2024/04/04 16:06:32;;;;;;;5.05;2.00;;;;;;;;;;6173848;23;20470;-67
2024/04/04 16:09:20;;;;;;;3.97;1.80;;;;;;;;;;6173029;23;20017;-66
2024/04/04 16:12:10;;;;;;;6.22;2.28;;;;;;;;;;6174492;23;20032;-66
2024/04/04 16:14:56;;;;;;;3.67;2.28;;;;;;;;;;6176921;23;20020;-66
2024/04/04 16:17:56;;;;;;;8.02;2.50;;;;;;;;;;6173572;23;20727;-49
2024/04/04 16:20:42;;;;;;;2.40;2.10;;;;;;;;;;6174238;23;20496;-60
2024/04/04 16:23:36;;;;;;;4.28;1.58;;;;;;;;;;6174366;23;20035;-60
2024/04/04 16:26:21;;;;;;;3.47;1.50;;;;;;;;;;6173041;23;20025;-60
2024/04/04 16:29:14;;;;;;;7.47;2.38;;;;;;;;;;6175220;23;20454;-60
2024/04/04 16:32:00;;;;;;;7.15;2.38;;;;;;;;;;6172646;23;20400;-60
2024/04/04 16:34:53;;;;;;;3.83;1.90;;;;;;;;;;6173229;23;20028;-67
2024/04/04 16:37:39;;;;;;;4.70;2.17;;;;;;;;;;6172431;23;20834;-56
2024/04/04 16:40:32;;;;;;;6.07;2.10;;;;;;;;;;6171228;23;20024;-59
2024/04/04 16:43:19;;;;;;;6.00;2.17;;;;;;;;;;6172069;23;20027;-58
2024/04/04 16:46:11;;;;;;;2.22;1.80;;;;;;;;;;6152877;23;20516;-59
2024/04/04 16:48:57;;;;;;;2.78;2.03;;;;;;;;;;6169102;23;20020;-59
2024/04/04 16:51:50;;;;;;;5.32;2.20;;;;;;;;;;6173400;23;20025;-60
2024/04/04 16:54:36;;;;;;;3.55;2.00;;;;;;;;;;6174036;23;20020;-53
2024/04/04 16:57:29;;;;;;;4.82;2.10;;;;;;;;;;6175188;23;20764;-56
2024/04/04 17:00:22;;;;;;;5.45;2.03;;;;;;;;;;6175790;23;20745;-53
2024/04/04 17:03:18;;;;;;;7.00;2.08;;;;;;;;;;6176248;23;20525;-55
2024/04/04 17:06:04;;;;;;;1.80;1.40;;;;;;;;;;6170610;23;20021;-56
2024/04/04 17:08:57;;;;;;;1.58;1.30;;;;;;;;;;6170754;23;20024;-56
2024/04/04 17:11:50;;;;;;;3.22;1.80;;;;;;;;;;6174118;23;20039;-53
2024/04/04 17:14:43;;;;;;;4.95;2.08;;;;;;;;;;6171531;23;20031;-60
2024/04/04 17:17:36;;;;;;;3.05;2.08;;;;;;;;;;6170391;23;20473;-61
2024/04/04 17:20:29;;;;;;;5.45;2.28;;;;;;;;;;6172559;23;20615;-60
2024/04/04 17:23:15;;;;;;;5.88;2.25;;;;;;;;;;6171689;23;20020;-60
2024/04/04 17:26:09;;;;;;;7.03;2.40;;;;;;;;;;6173107;23;20050;-60
2024/04/04 17:28:55;;;;;;;4.20;2.35;;;;;;;;;;6173034;23;20035;-60
2024/04/04 17:31:47;;;;;;;4.68;2.65;;;;;;;;;;6172339;23;20024;-52
2024/04/04 17:34:33;;;;;;;4.90;2.22;;;;;;;;;;6172811;23;20032;-49
2024/04/04 17:37:30;;;;;;;2.28;1.65;;;;;;;;;;6174754;23;20090;-50
2024/04/04 17:40:13;;;;;;;4.68;2.35;;;;;;;;;;6174075;23;20024;-52
2024/04/04 17:43:06;;;;;;;3.15;1.80;;;;;;;;;;6174126;23;20020;-49
2024/04/04 17:45:53;;;;;;;3.47;1.80;;;;;;;;;;6172757;23;20463;-49
2024/04/04 17:48:45;;;;;;;2.50;1.60;;;;;;;;;;6174822;23;20382;-61
2024/04/04 17:51:38;;;;;;;3.58;1.98;;;;;;;;;;6175221;23;20025;-60
2024/04/04 17:54:24;;;;;;;3.53;2.55;;;;;;;;;;6175972;23;20028;-60
2024/04/04 17:57:24;;;;;;;2.53;1.83;;;;;;;;;;6175665;23;20351;-69
2024/04/04 18:00:11;;;;;;;3.95;2.05;;;;;;;;;;6174855;23;20028;-61
2024/04/04 18:03:03;;;;;;;5.25;2.00;;;;;;;;;;6173945;23;20021;-59
2024/04/04 18:05:50;;;;;;;5.25;2.50;;;;;;;;;;6173769;23;20025;-61
2024/04/04 18:08:42;;;;;;;5.25;2.17;;;;;;;;;;6170830;23;20481;-61
2024/04/04 18:11:35;;;;;;;4.70;2.05;;;;;;;;;;6170246;23;20028;-60
2024/04/04 18:14:22;;;;;;;5.20;2.35;;;;;;;;;;6168504;23;20021;-60
2024/04/04 18:17:21;;;;;;;8.30;2.50;;;;;;;;;;6166056;23;20024;-60
2024/04/04 18:20:14;;;;;;;7.50;2.40;;;;;;;;;;6170881;23;20397;-53
2024/04/04 18:23:06;;;;;;;4.00;2.10;;;;;;;;;;6172396;23;20402;-51
2024/04/04 18:25:54;;;;;;;4.43;1.85;;;;;;;;;;6171299;23;20021;-51
2024/04/04 18:28:47;;;;;;;4.70;2.33;;;;;;;;;;6173161;23;20098;-48
2024/04/04 18:31:33;;;;;;;4.05;2.10;;;;;;;;;;6171616;23;20029;-53
2024/04/04 18:34:27;;;;;;;4.63;2.72;;;;;;;;;;6171116;23;20031;-68
2024/04/04 18:37:12;;;;;;;8.40;2.50;;;;;;;;;;6173850;23;20024;-68
2024/04/04 18:40:06;;;;;;;8.35;2.53;;;;;;;;;;6171232;23;20466;-69
2024/04/04 18:42:52;;;;;;;6.03;2.72;;;;;;;;;;6171697;23;20024;-68
2024/04/04 18:45:45;;;;;;;9.50;2.53;;;;;;;;;;6173143;23;20095;-68
2024/04/04 18:48:38;;;;;;;3.15;2.05;;;;;;;;;;6172760;23;20358;-69
2024/04/04 18:51:31;;;;;;;3.13;2.03;;;;;;;;;;6172844;23;20327;-68
2024/04/04 18:54:17;;;;;;;5.45;2.67;;;;;;;;;;6170733;23;20021;-52
2024/04/04 18:57:19;;;;;;;4.88;2.80;;;;;;;;;;6168944;23;20029;-48
2024/04/04 19:00:04;;;;;;;5.70;2.88;;;;;;;;;;6170544;23;20020;-50
2024/04/04 19:02:56;;;;;;;4.18;2.70;;;;;;;;;;6173279;23;20024;-50
2024/04/04 19:05:42;;;;;;;4.80;2.53;;;;;;;;;;6173854;23;20021;-53
2024/04/04 19:08:35;;;;;;;5.40;2.78;;;;;;;;;;6172002;23;20815;-52
2024/04/04 19:11:21;;;;;;;7.22;2.75;;;;;;;;;;6171691;23;20024;-61
2024/04/04 19:14:14;;;;;;;6.13;2.30;;;;;;;;;;6170637;23;20020;-55
2024/04/04 19:17:13;;;;;;;3.55;2.33;;;;;;;;;;6171888;23;20106;-59
2024/04/04 19:20:08;;;;;;;5.72;2.90;;;;;;;;;;6169150;23;20021;-58
2024/04/04 19:22:53;;;;;;;7.03;2.60;;;;;;;;;;6173745;23;20028;-55
2024/04/04 19:25:52;;;;;;;4.53;2.55;;;;;;;;;;6170840;23;20025;-57
2024/04/04 19:28:45;;;;;;;5.88;2.80;;;;;;;;;;6174406;23;20055;-57
2024/04/04 19:31:38;;;;;;;5.90;2.97;;;;;;;;;;6173101;23;20024;-58
2024/04/04 19:34:25;;;;;;;7.28;3.22;;;;;;;;;;6173878;23;20024;-57
2024/04/04 19:37:17;;;;;;;4.38;2.50;;;;;;;;;;6175911;23;20620;-57
2024/04/04 19:40:04;;;;;;;7.22;2.63;;;;;;;;;;6173016;23;20062;-57
2024/04/04 19:42:56;;;;;;;5.72;2.75;;;;;;;;;;6175094;23;20403;-55
2024/04/04 19:45:52;;;;;;;7.70;3.22;;;;;;;;;;6176250;23;20029;-57
2024/04/04 19:48:45;;;;;;;5.43;2.58;;;;;;;;;;6175048;23;20348;-61
2024/04/04 19:51:30;;;;;;;6.90;3.13;;;;;;;;;;6175953;23;20029;-60
2024/04/04 19:54:23;;;;;;;7.50;3.10;;;;;;;;;;6173240;23;20028;-60
2024/04/04 19:57:24;;;;;;;5.82;3.17;;;;;;;;;;6174046;23;20027;-60
2024/04/04 20:00:09;;;;;;;9.00;3.20;;;;;;;;;;6173488;23;20356;-60
2024/04/04 20:03:02;;;;;;;6.88;3.53;;;;;;;;;;6171631;23;20616;-61
2024/04/04 20:05:48;;;;;;;5.55;3.10;;;;;;;;;;6171778;23;20469;-52
2024/04/04 20:08:48;;;;;;;7.38;3.00;;;;;;;;;;6175492;23;20506;-61
2024/04/04 20:11:34;;;;;;;9.60;3.13;;;;;;;;;;6173918;23;20674;-61
2024/04/04 20:14:27;;;;;;;8.30;3.35;;;;;;;;;;6173109;23;20028;-62
2024/04/04 20:17:20;;;;;;;7.63;3.00;;;;;;;;;;6172391;23;20020;-61
2024/04/04 20:20:19;;;;;;;5.93;3.17;;;;;;;;;;6175613;23;20029;-62
2024/04/04 20:23:06;;;;;;;7.05;3.28;;;;;;;;;;6175535;23;20025;-62
2024/04/04 20:25:59;;;;;;;6.03;3.08;;;;;;;;;;6172108;23;20601;-62
2024/04/04 20:28:44;;;;;;;7.60;3.20;;;;;;;;;;6176041;23;20361;-66
2024/04/04 20:31:37;;;;;;;9.20;3.50;;;;;;;;;;6172164;23;20025;-66
2024/04/04 20:34:23;;;;;;;6.75;3.20;;;;;;;;;;6174621;23;20370;-65
2024/04/04 20:37:17;;;;;;;7.55;3.47;;;;;;;;;;6176316;23;20027;-66
2024/04/04 20:40:06;;;;;;;6.70;3.35;;;;;;;;;;6176746;23;20417;-66
2024/04/04 20:42:56;;;;;;;11.20;3.25;;;;;;;;;;6176167;23;20366;-63
2024/04/04 20:45:42;;;;;;;7.32;3.42;;;;;;;;;;6178298;23;20463;-66
2024/04/04 20:48:35;;;;;;;9.20;3.30;;;;;;;;;;6174078;23;20466;-66
2024/04/04 20:51:27;;;;;;;8.23;3.40;;;;;;;;;;6178133;23;20028;-66
2024/04/04 20:54:13;;;;;;;7.15;3.63;;;;;;;;;;6176397;23;20024;-66
2024/04/04 20:57:06;;;;;;;9.98;3.83;;;;;;;;;;6178815;23;20264;-65
2024/04/04 20:59:59;;;;;;;8.57;3.60;;;;;;;;;;6174983;23;20059;-66
2024/04/04 21:02:52;;;;;;;6.10;2.80;;;;;;;;;;6175660;23;20800;-66
2024/04/04 21:05:45;;;;;;;8.00;3.03;;;;;;;;;;6175799;23;20029;-65
2024/04/04 21:08:31;;;;;;;7.50;3.15;;;;;;;;;;6172945;23;20427;-66
2024/04/04 21:11:24;;;;;;;6.88;3.15;;;;;;;;;;6174142;23;20028;-59
2024/04/04 21:14:10;;;;;;;6.30;2.90;;;;;;;;;;6173236;23;20025;-51
2024/04/04 21:17:03;;;;;;;5.05;3.33;;;;;;;;;;6173368;23;20020;-52
2024/04/04 21:19:56;;;;;;;5.57;2.90;;;;;;;;;;6175137;23;20086;-52
2024/04/04 21:22:42;;;;;;;8.27;2.90;;;;;;;;;;6173620;23;20494;-51
2024/04/04 21:25:35;;;;;;;4.72;3.03;;;;;;;;;;6176355;23;20025;-47
2024/04/04 21:28:21;;;;;;;4.93;2.95;;;;;;;;;;6175671;23;20114;-53
2024/04/04 21:31:14;;;;;;;5.60;2.85;;;;;;;;;;6176725;23;20036;-58
2024/04/04 21:34:07;;;;;;;4.63;2.70;;;;;;;;;;6175800;23;20029;-57
2024/04/04 21:37:00;;;;;;;4.47;2.78;;;;;;;;;;6176831;23;20031;-57
2024/04/04 21:39:47;;;;;;;6.95;2.50;;;;;;;;;;6177051;23;20029;-58
2024/04/04 21:42:39;;;;;;;4.15;2.78;;;;;;;;;;6175567;23;20024;-58
2024/04/04 21:45:25;;;;;;;6.95;2.97;;;;;;;;;;6174886;23;20028;-59
2024/04/04 21:48:18;;;;;;;6.07;2.92;;;;;;;;;;6177845;23;20024;-58
2024/04/04 21:51:05;;;;;;;4.28;3.13;;;;;;;;;;6175537;23;20708;-65
2024/04/04 21:53:57;;;;;;;9.05;3.50;;;;;;;;;;6174062;23;20022;-65
2024/04/04 21:56:43;;;;;;;4.47;3.20;;;;;;;;;;6174781;23;20021;-65
2024/04/04 21:59:43;;;;;;;5.05;3.00;;;;;;;;;;6175152;23;20020;-66
2024/04/04 22:02:36;;;;;;;5.75;3.03;;;;;;;;;;6174020;23;20495;-64
2024/04/04 22:05:29;;;;;;;5.18;3.42;;;;;;;;;;6175308;23;20020;-65
2024/04/04 22:08:15;;;;;;;7.05;3.13;;;;;;;;;;6176559;23;20055;-65
2024/04/04 22:11:08;;;;;;;4.75;3.42;;;;;;;;;;6175465;23;20031;-61
2024/04/04 22:14:01;;;;;;;5.40;3.33;;;;;;;;;;6174048;23;20025;-61
2024/04/04 22:16:47;;;;;;;7.25;3.53;;;;;;;;;;6169220;22;20024;-61
2024/04/04 22:19:47;;;;;;;7.70;3.42;;;;;;;;;;6172703;23;20028;-61
2024/04/04 22:22:33;;;;;;;7.60;3.38;;;;;;;;;;6175124;23;20024;-61
2024/04/04 22:25:26;;;;;;;5.78;2.78;;;;;;;;;;6176617;23;20267;-58
2024/04/04 22:28:19;;;;;;;4.88;2.75;;;;;;;;;;6174813;23;20043;-62
2024/04/04 22:31:05;;;;;;;5.03;3.08;;;;;;;;;;6176333;23;20458;-62
2024/04/04 22:33:59;;;;;;;8.70;3.38;;;;;;;;;;6175920;23;20021;-62
2024/04/04 22:36:45;;;;;;;6.10;3.40;;;;;;;;;;6177143;23;20032;-61
2024/04/04 22:39:37;;;;;;;6.35;2.90;;;;;;;;;;6176182;23;20021;-61
2024/04/04 22:42:23;;;;;;;7.75;3.20;;;;;;;;;;6171434;23;20332;-61
2024/04/04 22:45:16;;;;;;;6.20;2.65;;;;;;;;;;6176526;23;20025;-61
2024/04/04 22:48:03;;;;;;;5.80;2.88;;;;;;;;;;6177632;23;20031;-65
2024/04/04 22:50:56;;;;;;;5.30;3.05;;;;;;;;;;6175344;23;20081;-65
2024/04/04 22:53:42;;;;;;;5.32;3.20;;;;;;;;;;6174247;23;20024;-65
2024/04/04 22:56:34;;;;;;;6.38;3.20;;;;;;;;;;6175755;23;20098;-64
2024/04/04 22:59:21;;;;;;;6.07;2.85;;;;;;;;;;6176759;23;20434;-65
2024/04/04 23:02:20;;;;;;;9.48;3.53;;;;;;;;;;6179083;23;20470;-61
2024/04/04 23:05:06;;;;;;;3.95;2.53;;;;;;;;;;6178754;23;20043;-59
2024/04/04 23:07:59;;;;;;;4.65;2.97;;;;;;;;;;6173771;23;20410;-60
2024/04/04 23:10:52;;;;;;;7.93;2.72;;;;;;;;;;6175470;23;20020;-60
2024/04/04 23:13:39;;;;;;;4.65;3.03;;;;;;;;;;6179681;23;20025;-60
2024/04/04 23:16:33;;;;;;;5.10;2.90;;;;;;;;;;6178371;23;20020;-59
2024/04/04 23:19:13;;;;;;;8.75;3.30;;;;;;;;;;6177296;23;20028;-60
2024/04/04 23:21:39;;;;;;;5.15;2.85;;;;;;;;;;6169280;23;20020;-60
2024/04/04 23:24:06;;;;;;;5.47;3.10;;;;;;;;;;6176419;23;20540;-65
2024/04/04 23:26:38;;;;;;;4.55;2.78;;;;;;;;;;6175892;23;20031;-65
2024/04/04 23:29:04;;;;;;;3.58;2.88;;;;;;;;;;6176451;23;20752;-64
2024/04/04 23:31:37;;;;;;;5.20;2.85;;;;;;;;;;6176966;23;20020;-64
2024/04/04 23:34:03;;;;;;;4.90;2.80;;;;;;;;;;6174417;23;20347;-64
2024/04/04 23:36:30;;;;;;;5.78;2.30;;;;;;;;;;6175193;23;20024;-64
2024/04/04 23:39:04;;;;;;;3.83;2.78;;;;;;;;;;6176656;23;20447;-51
2024/04/04 23:41:31;;;;;;;7.57;2.78;;;;;;;;;;6175657;23;20021;-52
2024/04/04 23:43:57;;;;;;;5.32;2.78;;;;;;;;;;6178313;23;20024;-48
2024/04/04 23:46:30;;;;;;;3.00;2.25;;;;;;;;;;6177883;23;20032;-52
2024/04/04 23:48:57;;;;;;;4.15;2.90;;;;;;;;;;6178130;23;20079;-50
2024/04/04 23:51:23;;;;;;;4.72;2.88;;;;;;;;;;6176426;23;20028;-52
2024/04/04 23:53:56;;;;;;;5.55;2.80;;;;;;;;;;6174924;23;20020;-49
2024/04/04 23:56:22;;;;;;;6.75;2.72;;;;;;;;;;6176865;23;20040;-64
2024/04/04 23:58:50;;;;;;;5.78;2.60;;;;;;;;;;6176139;23;20028;-51
